sensor_id;sensor_type;location;lat;lon;timestamp;temperature;humidity
69084;SHT31;56185;48.526;9.044;2023-01-10T00:00:51;5.20;86.07
69084;SHT31;56185;48.526;9.044;2023-01-10T00:03:17;5.10;86.19
69084;SHT31;56185;48.526;9.044;2023-01-10T00:05:42;5.10;86.22
69084;SHT31;56185;48.526;9.044;2023-01-10T00:08:09;5.11;85.60
69084;SHT31;56185;48.526;9.044;2023-01-10T00:10:38;5.18;85.96
69084;SHT31;56185;48.526;9.044;2023-01-10T00:13:03;5.08;85.82
69084;SHT31;56185;48.526;9.044;2023-01-10T00:15:31;5.13;85.87
69084;SHT31;56185;48.526;9.044;2023-01-10T00:17:57;5.15;84.96
69084;SHT31;56185;48.526;9.044;2023-01-10T00:20:22;5.14;86.19
69084;SHT31;56185;48.526;9.044;2023-01-10T00:22:47;5.18;85.61
69084;SHT31;56185;48.526;9.044;2023-01-10T00:25:13;5.18;85.81
69084;SHT31;56185;48.526;9.044;2023-01-10T00:27:38;5.17;85.88
69084;SHT31;56185;48.526;9.044;2023-01-10T00:30:04;5.14;86.09
69084;SHT31;56185;48.526;9.044;2023-01-10T00:32:29;5.28;85.99
69084;SHT31;56185;48.526;9.044;2023-01-10T00:34:54;5.20;86.68
69084;SHT31;56185;48.526;9.044;2023-01-10T00:37:20;5.21;86.79
69084;SHT31;56185;48.526;9.044;2023-01-10T00:39:45;5.23;86.01
69084;SHT31;56185;48.526;9.044;2023-01-10T00:42:10;5.15;86.48
69084;SHT31;56185;48.526;9.044;2023-01-10T00:44:36;5.13;86.52
69084;SHT31;56185;48.526;9.044;2023-01-10T00:47:01;5.15;87.33
69084;SHT31;56185;48.526;9.044;2023-01-10T00:49:26;5.17;86.78
69084;SHT31;56185;48.526;9.044;2023-01-10T00:51:52;5.11;86.82
69084;SHT31;56185;48.526;9.044;2023-01-10T00:54:17;5.04;87.44
69084;SHT31;56185;48.526;9.044;2023-01-10T00:56:42;4.94;87.08
69084;SHT31;56185;48.526;9.044;2023-01-10T00:59:07;4.91;87.67
69084;SHT31;56185;48.526;9.044;2023-01-10T01:01:33;4.97;87.64
69084;SHT31;56185;48.526;9.044;2023-01-10T01:03:58;4.98;87.41
69084;SHT31;56185;48.526;9.044;2023-01-10T01:06:24;4.98;87.26
69084;SHT31;56185;48.526;9.044;2023-01-10T01:08:50;5.04;87.23
69084;SHT31;56185;48.526;9.044;2023-01-10T01:11:15;5.04;87.15
69084;SHT31;56185;48.526;9.044;2023-01-10T01:13:40;5.04;87.10
69084;SHT31;56185;48.526;9.044;2023-01-10T01:16:06;4.88;87.01
69084;SHT31;56185;48.526;9.044;2023-01-10T01:18:31;4.79;87.88
69084;SHT31;56185;48.526;9.044;2023-01-10T01:20:57;4.87;88.55
69084;SHT31;56185;48.526;9.044;2023-01-10T01:23:23;4.80;87.51
69084;SHT31;56185;48.526;9.044;2023-01-10T01:25:55;4.72;88.07
69084;SHT31;56185;48.526;9.044;2023-01-10T01:28:20;4.69;88.74
69084;SHT31;56185;48.526;9.044;2023-01-10T01:30:46;4.73;87.71
69084;SHT31;56185;48.526;9.044;2023-01-10T01:33:11;4.77;89.14
69084;SHT31;56185;48.526;9.044;2023-01-10T01:35:36;4.65;88.64
69084;SHT31;56185;48.526;9.044;2023-01-10T01:38:02;4.55;88.62
69084;SHT31;56185;48.526;9.044;2023-01-10T01:40:27;4.45;88.67
69084;SHT31;56185;48.526;9.044;2023-01-10T01:42:52;4.67;88.70
69084;SHT31;56185;48.526;9.044;2023-01-10T01:45:36;4.66;88.81
69084;SHT31;56185;48.526;9.044;2023-01-10T01:48:20;4.69;89.12
69084;SHT31;56185;48.526;9.044;2023-01-10T01:50:53;4.79;88.22
69084;SHT31;56185;48.526;9.044;2023-01-10T01:53:30;4.67;89.32
69084;SHT31;56185;48.526;9.044;2023-01-10T01:56:00;4.74;88.64
69084;SHT31;56185;48.526;9.044;2023-01-10T01:58:38;4.74;88.52
69084;SHT31;56185;48.526;9.044;2023-01-10T02:01:05;4.69;88.78
69084;SHT31;56185;48.526;9.044;2023-01-10T02:03:31;4.80;88.97
69084;SHT31;56185;48.526;9.044;2023-01-10T02:05:57;4.73;89.33
69084;SHT31;56185;48.526;9.044;2023-01-10T02:08:22;4.74;88.58
69084;SHT31;56185;48.526;9.044;2023-01-10T02:11:00;4.50;88.93
69084;SHT31;56185;48.526;9.044;2023-01-10T02:13:27;4.52;89.77
69084;SHT31;56185;48.526;9.044;2023-01-10T02:15:52;4.57;88.98
69084;SHT31;56185;48.526;9.044;2023-01-10T02:18:18;4.69;89.01
69084;SHT31;56185;48.526;9.044;2023-01-10T02:24:18;4.69;88.97
69084;SHT31;56185;48.526;9.044;2023-01-10T02:29:30;4.87;88.69
69084;SHT31;56185;48.526;9.044;2023-01-10T02:32:17;4.83;88.65
69084;SHT31;56185;48.526;9.044;2023-01-10T02:37:16;4.80;88.59
69084;SHT31;56185;48.526;9.044;2023-01-10T02:42:48;4.73;88.58
69084;SHT31;56185;48.526;9.044;2023-01-10T02:45:20;4.69;88.67
69084;SHT31;56185;48.526;9.044;2023-01-10T02:47:47;4.72;88.13
69084;SHT31;56185;48.526;9.044;2023-01-10T02:50:29;4.65;88.35
69084;SHT31;56185;48.526;9.044;2023-01-10T02:52:59;4.69;88.39
69084;SHT31;56185;48.526;9.044;2023-01-10T03:01:16;4.74;88.52
69084;SHT31;56185;48.526;9.044;2023-01-10T03:06:45;4.83;88.43
69084;SHT31;56185;48.526;9.044;2023-01-10T03:09:40;4.83;88.39
69084;SHT31;56185;48.526;9.044;2023-01-10T03:14:58;4.70;88.54
69084;SHT31;56185;48.526;9.044;2023-01-10T03:17:25;4.79;88.92
69084;SHT31;56185;48.526;9.044;2023-01-10T03:19:53;4.83;88.60
69084;SHT31;56185;48.526;9.044;2023-01-10T03:22:21;4.72;88.21
69084;SHT31;56185;48.526;9.044;2023-01-10T03:24:48;4.69;88.19
69084;SHT31;56185;48.526;9.044;2023-01-10T03:27:50;4.70;88.71
69084;SHT31;56185;48.526;9.044;2023-01-10T03:30:47;4.72;88.29
69084;SHT31;56185;48.526;9.044;2023-01-10T03:33:18;4.70;88.80
69084;SHT31;56185;48.526;9.044;2023-01-10T03:38:56;4.69;88.51
69084;SHT31;56185;48.526;9.044;2023-01-10T03:47:06;4.57;88.22
69084;SHT31;56185;48.526;9.044;2023-01-10T03:49:35;4.67;88.10
69084;SHT31;56185;48.526;9.044;2023-01-10T03:52:02;4.67;88.43
69084;SHT31;56185;48.526;9.044;2023-01-10T03:54:28;4.66;87.24
69084;SHT31;56185;48.526;9.044;2023-01-10T03:56:53;4.69;87.60
69084;SHT31;56185;48.526;9.044;2023-01-10T03:59:22;4.72;88.23
69084;SHT31;56185;48.526;9.044;2023-01-10T04:01:48;4.67;88.26
69084;SHT31;56185;48.526;9.044;2023-01-10T04:04:13;4.49;87.00
69084;SHT31;56185;48.526;9.044;2023-01-10T04:06:38;4.48;88.15
69084;SHT31;56185;48.526;9.044;2023-01-10T04:09:04;4.52;88.63
69084;SHT31;56185;48.526;9.044;2023-01-10T04:11:29;4.60;88.58
69084;SHT31;56185;48.526;9.044;2023-01-10T04:13:54;4.72;88.39
69084;SHT31;56185;48.526;9.044;2023-01-10T04:16:19;4.72;88.29
69084;SHT31;56185;48.526;9.044;2023-01-10T04:18:45;4.77;88.49
69084;SHT31;56185;48.526;9.044;2023-01-10T04:21:10;4.72;88.13
69084;SHT31;56185;48.526;9.044;2023-01-10T04:23:35;4.73;88.20
69084;SHT31;56185;48.526;9.044;2023-01-10T04:26:00;4.70;89.26
69084;SHT31;56185;48.526;9.044;2023-01-10T04:28:26;4.80;88.13
69084;SHT31;56185;48.526;9.044;2023-01-10T04:30:51;4.77;88.53
69084;SHT31;56185;48.526;9.044;2023-01-10T04:33:16;4.74;88.48
69084;SHT31;56185;48.526;9.044;2023-01-10T04:35:47;4.76;88.55
69084;SHT31;56185;48.526;9.044;2023-01-10T04:38:12;4.77;87.62
69084;SHT31;56185;48.526;9.044;2023-01-10T04:40:37;4.73;88.46
69084;SHT31;56185;48.526;9.044;2023-01-10T04:43:02;4.73;88.45
69084;SHT31;56185;48.526;9.044;2023-01-10T04:45:28;4.76;88.36
69084;SHT31;56185;48.526;9.044;2023-01-10T04:47:53;4.73;87.08
69084;SHT31;56185;48.526;9.044;2023-01-10T04:50:18;4.79;88.42
69084;SHT31;56185;48.526;9.044;2023-01-10T04:52:43;4.66;87.31
69084;SHT31;56185;48.526;9.044;2023-01-10T04:55:09;4.63;88.29
69084;SHT31;56185;48.526;9.044;2023-01-10T04:57:34;4.67;87.86
69084;SHT31;56185;48.526;9.044;2023-01-10T04:59:59;4.62;88.09
69084;SHT31;56185;48.526;9.044;2023-01-10T05:02:25;4.73;87.82
69084;SHT31;56185;48.526;9.044;2023-01-10T05:04:50;4.80;87.58
69084;SHT31;56185;48.526;9.044;2023-01-10T05:07:15;4.72;87.74
69084;SHT31;56185;48.526;9.044;2023-01-10T05:09:40;4.74;87.00
69084;SHT31;56185;48.526;9.044;2023-01-10T05:12:05;4.69;87.13
69084;SHT31;56185;48.526;9.044;2023-01-10T05:14:31;4.59;87.61
69084;SHT31;56185;48.526;9.044;2023-01-10T05:16:56;4.49;88.48
69084;SHT31;56185;48.526;9.044;2023-01-10T05:19:21;4.62;87.64
69084;SHT31;56185;48.526;9.044;2023-01-10T05:21:46;4.45;88.25
69084;SHT31;56185;48.526;9.044;2023-01-10T05:24:12;4.48;88.50
69084;SHT31;56185;48.526;9.044;2023-01-10T05:26:37;4.48;88.33
69084;SHT31;56185;48.526;9.044;2023-01-10T05:29:02;4.55;88.10
69084;SHT31;56185;48.526;9.044;2023-01-10T05:31:27;4.53;87.61
69084;SHT31;56185;48.526;9.044;2023-01-10T05:33:53;4.55;87.46
69084;SHT31;56185;48.526;9.044;2023-01-10T05:36:18;4.35;88.11
69084;SHT31;56185;48.526;9.044;2023-01-10T05:38:44;4.31;88.27
69084;SHT31;56185;48.526;9.044;2023-01-10T05:41:09;4.32;89.06
69084;SHT31;56185;48.526;9.044;2023-01-10T05:43:35;4.50;88.38
69084;SHT31;56185;48.526;9.044;2023-01-10T05:46:00;4.28;88.28
69084;SHT31;56185;48.526;9.044;2023-01-10T05:48:25;4.38;88.28
69084;SHT31;56185;48.526;9.044;2023-01-10T05:50:51;4.21;88.28
69084;SHT31;56185;48.526;9.044;2023-01-10T05:53:17;4.19;88.71
69084;SHT31;56185;48.526;9.044;2023-01-10T05:55:43;4.39;88.15
69084;SHT31;56185;48.526;9.044;2023-01-10T05:58:09;4.29;88.35
69084;SHT31;56185;48.526;9.044;2023-01-10T06:00:34;4.38;87.94
69084;SHT31;56185;48.526;9.044;2023-01-10T06:02:59;4.29;88.86
69084;SHT31;56185;48.526;9.044;2023-01-10T06:05:24;4.39;88.88
69084;SHT31;56185;48.526;9.044;2023-01-10T06:07:50;4.57;88.81
69084;SHT31;56185;48.526;9.044;2023-01-10T06:10:15;4.39;88.82
69084;SHT31;56185;48.526;9.044;2023-01-10T06:12:41;4.39;89.14
69084;SHT31;56185;48.526;9.044;2023-01-10T06:15:07;4.41;89.36
69084;SHT31;56185;48.526;9.044;2023-01-10T06:17:33;4.42;89.25
69084;SHT31;56185;48.526;9.044;2023-01-10T06:19:58;4.42;89.10
69084;SHT31;56185;48.526;9.044;2023-01-10T06:22:23;4.28;89.18
69084;SHT31;56185;48.526;9.044;2023-01-10T06:24:49;4.38;89.34
69084;SHT31;56185;48.526;9.044;2023-01-10T06:27:14;4.48;89.18
69084;SHT31;56185;48.526;9.044;2023-01-10T06:29:39;4.55;88.67
69084;SHT31;56185;48.526;9.044;2023-01-10T06:32:04;4.60;87.87
69084;SHT31;56185;48.526;9.044;2023-01-10T06:34:30;4.55;89.18
69084;SHT31;56185;48.526;9.044;2023-01-10T06:36:55;4.42;88.16
69084;SHT31;56185;48.526;9.044;2023-01-10T06:39:20;4.55;88.22
69084;SHT31;56185;48.526;9.044;2023-01-10T06:41:45;4.36;87.33
69084;SHT31;56185;48.526;9.044;2023-01-10T06:44:10;4.56;87.90
69084;SHT31;56185;48.526;9.044;2023-01-10T06:46:36;4.59;87.55
69084;SHT31;56185;48.526;9.044;2023-01-10T06:49:01;4.48;88.15
69084;SHT31;56185;48.526;9.044;2023-01-10T06:51:26;4.48;87.62
69084;SHT31;56185;48.526;9.044;2023-01-10T06:53:52;4.48;86.50
69084;SHT31;56185;48.526;9.044;2023-01-10T06:56:17;4.29;87.04
69084;SHT31;56185;48.526;9.044;2023-01-10T06:58:42;4.42;87.28
69084;SHT31;56185;48.526;9.044;2023-01-10T07:01:15;4.35;88.06
69084;SHT31;56185;48.526;9.044;2023-01-10T07:03:40;4.31;87.78
69084;SHT31;56185;48.526;9.044;2023-01-10T07:06:06;4.32;87.89
69084;SHT31;56185;48.526;9.044;2023-01-10T07:08:32;4.31;88.31
69084;SHT31;56185;48.526;9.044;2023-01-10T07:10:57;4.36;88.50
69084;SHT31;56185;48.526;9.044;2023-01-10T07:13:22;4.29;89.67
69084;SHT31;56185;48.526;9.044;2023-01-10T07:15:47;4.36;88.66
69084;SHT31;56185;48.526;9.044;2023-01-10T07:18:13;4.31;89.03
69084;SHT31;56185;48.526;9.044;2023-01-10T07:20:38;4.29;88.87
69084;SHT31;56185;48.526;9.044;2023-01-10T07:23:03;4.35;89.65
69084;SHT31;56185;48.526;9.044;2023-01-10T07:25:29;4.41;89.30
69084;SHT31;56185;48.526;9.044;2023-01-10T07:27:54;4.46;89.50
69084;SHT31;56185;48.526;9.044;2023-01-10T07:30:20;4.50;88.18
69084;SHT31;56185;48.526;9.044;2023-01-10T07:32:45;4.45;88.70
69084;SHT31;56185;48.526;9.044;2023-01-10T07:35:16;4.48;88.65
69084;SHT31;56185;48.526;9.044;2023-01-10T07:37:41;4.55;87.61
69084;SHT31;56185;48.526;9.044;2023-01-10T07:40:07;4.55;87.73
69084;SHT31;56185;48.526;9.044;2023-01-10T07:42:32;4.52;87.31
69084;SHT31;56185;48.526;9.044;2023-01-10T07:44:57;4.48;88.09
69084;SHT31;56185;48.526;9.044;2023-01-10T07:47:23;4.29;86.98
69084;SHT31;56185;48.526;9.044;2023-01-10T07:49:48;4.29;87.30
69084;SHT31;56185;48.526;9.044;2023-01-10T07:52:16;4.38;86.84
69084;SHT31;56185;48.526;9.044;2023-01-10T07:54:41;4.49;87.75
69084;SHT31;56185;48.526;9.044;2023-01-10T07:57:06;4.55;87.29
69084;SHT31;56185;48.526;9.044;2023-01-10T07:59:31;4.65;87.05
69084;SHT31;56185;48.526;9.044;2023-01-10T08:01:56;4.65;87.04
69084;SHT31;56185;48.526;9.044;2023-01-10T08:04:22;4.66;87.37
69084;SHT31;56185;48.526;9.044;2023-01-10T08:06:47;4.72;87.04
69084;SHT31;56185;48.526;9.044;2023-01-10T08:09:12;4.66;86.80
69084;SHT31;56185;48.526;9.044;2023-01-10T08:11:38;4.57;85.47
69084;SHT31;56185;48.526;9.044;2023-01-10T08:14:03;4.65;84.89
69084;SHT31;56185;48.526;9.044;2023-01-10T08:16:28;4.57;85.83
69084;SHT31;56185;48.526;9.044;2023-01-10T08:18:54;4.69;84.37
69084;SHT31;56185;48.526;9.044;2023-01-10T08:21:19;4.63;85.21
69084;SHT31;56185;48.526;9.044;2023-01-10T08:23:44;4.69;85.41
69084;SHT31;56185;48.526;9.044;2023-01-10T08:26:10;4.80;86.14
69084;SHT31;56185;48.526;9.044;2023-01-10T08:28:35;4.88;84.22
69084;SHT31;56185;48.526;9.044;2023-01-10T08:31:08;4.79;83.15
69084;SHT31;56185;48.526;9.044;2023-01-10T08:33:33;4.76;84.37
69084;SHT31;56185;48.526;9.044;2023-01-10T08:35:58;4.73;84.28
69084;SHT31;56185;48.526;9.044;2023-01-10T08:38:24;4.66;85.42
69084;SHT31;56185;48.526;9.044;2023-01-10T08:40:49;4.72;85.33
69084;SHT31;56185;48.526;9.044;2023-01-10T08:43:14;4.76;86.50
69084;SHT31;56185;48.526;9.044;2023-01-10T08:45:40;4.87;87.10
69084;SHT31;56185;48.526;9.044;2023-01-10T08:48:06;4.87;86.67
69084;SHT31;56185;48.526;9.044;2023-01-10T08:50:31;4.90;86.10
69084;SHT31;56185;48.526;9.044;2023-01-10T08:52:57;5.10;84.30
69084;SHT31;56185;48.526;9.044;2023-01-10T08:55:23;5.04;83.45
69084;SHT31;56185;48.526;9.044;2023-01-10T08:57:49;4.91;83.30
69084;SHT31;56185;48.526;9.044;2023-01-10T09:00:14;4.86;84.21
69084;SHT31;56185;48.526;9.044;2023-01-10T09:02:40;4.80;84.65
69084;SHT31;56185;48.526;9.044;2023-01-10T09:05:05;4.77;85.19
69084;SHT31;56185;48.526;9.044;2023-01-10T09:07:31;4.87;84.66
69084;SHT31;56185;48.526;9.044;2023-01-10T09:09:56;4.88;85.03
69084;SHT31;56185;48.526;9.044;2023-01-10T09:12:21;4.88;84.52
69084;SHT31;56185;48.526;9.044;2023-01-10T09:14:46;4.80;84.94
69084;SHT31;56185;48.526;9.044;2023-01-10T09:17:11;4.81;84.68
69084;SHT31;56185;48.526;9.044;2023-01-10T09:19:37;4.81;84.59
69084;SHT31;56185;48.526;9.044;2023-01-10T09:22:02;4.93;83.59
69084;SHT31;56185;48.526;9.044;2023-01-10T09:24:27;5.07;84.79
69084;SHT31;56185;48.526;9.044;2023-01-10T09:26:52;5.07;84.05
69084;SHT31;56185;48.526;9.044;2023-01-10T09:29:17;5.08;84.34
69084;SHT31;56185;48.526;9.044;2023-01-10T09:31:43;5.11;83.91
69084;SHT31;56185;48.526;9.044;2023-01-10T09:34:08;5.07;83.84
69084;SHT31;56185;48.526;9.044;2023-01-10T09:36:33;5.11;84.41
69084;SHT31;56185;48.526;9.044;2023-01-10T09:38:58;5.01;83.72
69084;SHT31;56185;48.526;9.044;2023-01-10T09:47:31;5.14;83.44
69084;SHT31;56185;48.526;9.044;2023-01-10T09:52:31;5.13;83.39
69084;SHT31;56185;48.526;9.044;2023-01-10T09:55:00;5.27;83.53
69084;SHT31;56185;48.526;9.044;2023-01-10T09:57:28;5.30;83.06
69084;SHT31;56185;48.526;9.044;2023-01-10T09:59:53;5.30;82.75
69084;SHT31;56185;48.526;9.044;2023-01-10T10:05:03;5.51;83.82
69084;SHT31;56185;48.526;9.044;2023-01-10T10:07:31;5.41;83.17
69084;SHT31;56185;48.526;9.044;2023-01-10T10:09:57;5.38;82.92
69084;SHT31;56185;48.526;9.044;2023-01-10T10:18:07;5.52;82.90
69084;SHT31;56185;48.526;9.044;2023-01-10T10:20:52;5.62;82.99
69084;SHT31;56185;48.526;9.044;2023-01-10T10:23:36;5.54;80.94
69084;SHT31;56185;48.526;9.044;2023-01-10T10:29:06;5.59;81.77
69084;SHT31;56185;48.526;9.044;2023-01-10T10:34:23;5.67;79.82
69084;SHT31;56185;48.526;9.044;2023-01-10T10:36:55;5.73;80.21
69084;SHT31;56185;48.526;9.044;2023-01-10T10:39:37;5.72;79.61
69084;SHT31;56185;48.526;9.044;2023-01-10T10:42:11;5.75;79.50
69084;SHT31;56185;48.526;9.044;2023-01-10T10:47:22;5.79;79.50
69084;SHT31;56185;48.526;9.044;2023-01-10T10:49:49;5.79;80.18
69084;SHT31;56185;48.526;9.044;2023-01-10T10:52:28;6.06;79.47
69084;SHT31;56185;48.526;9.044;2023-01-10T10:54:53;5.96;77.05
69084;SHT31;56185;48.526;9.044;2023-01-10T10:57:23;6.02;77.32
69084;SHT31;56185;48.526;9.044;2023-01-10T10:59:49;6.04;77.76
69084;SHT31;56185;48.526;9.044;2023-01-10T11:02:24;6.09;77.39
69084;SHT31;56185;48.526;9.044;2023-01-10T11:04:52;6.16;77.33
69084;SHT31;56185;48.526;9.044;2023-01-10T11:07:19;6.11;78.80
69084;SHT31;56185;48.526;9.044;2023-01-10T11:09:46;6.23;76.66
69084;SHT31;56185;48.526;9.044;2023-01-10T11:12:18;6.18;76.89
69084;SHT31;56185;48.526;9.044;2023-01-10T11:14:48;6.27;77.45
69084;SHT31;56185;48.526;9.044;2023-01-10T11:17:25;6.23;76.76
69084;SHT31;56185;48.526;9.044;2023-01-10T11:19:58;6.25;78.14
69084;SHT31;56185;48.526;9.044;2023-01-10T11:22:24;6.06;76.35
69084;SHT31;56185;48.526;9.044;2023-01-10T11:24:53;6.18;77.47
69084;SHT31;56185;48.526;9.044;2023-01-10T11:27:22;6.24;77.42
69084;SHT31;56185;48.526;9.044;2023-01-10T11:29:50;6.34;77.04
69084;SHT31;56185;48.526;9.044;2023-01-10T11:32:17;6.34;77.96
69084;SHT31;56185;48.526;9.044;2023-01-10T11:34:55;6.38;76.93
69084;SHT31;56185;48.526;9.044;2023-01-10T11:37:32;6.55;78.39
69084;SHT31;56185;48.526;9.044;2023-01-10T11:42:46;6.55;77.42
69084;SHT31;56185;48.526;9.044;2023-01-10T11:45:20;6.64;77.01
69084;SHT31;56185;48.526;9.044;2023-01-10T11:50:38;6.74;77.35
69084;SHT31;56185;48.526;9.044;2023-01-10T11:53:05;6.79;76.73
69084;SHT31;56185;48.526;9.044;2023-01-10T11:55:34;6.88;76.69
69084;SHT31;56185;48.526;9.044;2023-01-10T11:58:05;6.76;75.74
69084;SHT31;56185;48.526;9.044;2023-01-10T12:00:35;6.76;74.44
69084;SHT31;56185;48.526;9.044;2023-01-10T12:03:01;6.72;76.30
69084;SHT31;56185;48.526;9.044;2023-01-10T12:05:26;6.72;75.22
69084;SHT31;56185;48.526;9.044;2023-01-10T12:10:23;6.75;75.81
69084;SHT31;56185;48.526;9.044;2023-01-10T12:12:56;6.79;76.39
69084;SHT31;56185;48.526;9.044;2023-01-10T12:15:29;6.86;76.72
69084;SHT31;56185;48.526;9.044;2023-01-10T12:18:00;7.03;75.54
69084;SHT31;56185;48.526;9.044;2023-01-10T12:20:28;6.97;75.25
69084;SHT31;56185;48.526;9.044;2023-01-10T12:23:00;7.09;75.17
69084;SHT31;56185;48.526;9.044;2023-01-10T12:25:34;7.12;72.74
69084;SHT31;56185;48.526;9.044;2023-01-10T12:28:01;7.38;73.77
69084;SHT31;56185;48.526;9.044;2023-01-10T12:30:32;7.51;72.79
69084;SHT31;56185;48.526;9.044;2023-01-10T12:33:14;7.58;72.09
69084;SHT31;56185;48.526;9.044;2023-01-10T12:35:51;7.63;71.48
69084;SHT31;56185;48.526;9.044;2023-01-10T12:38:41;7.67;71.47
69084;SHT31;56185;48.526;9.044;2023-01-10T12:41:08;7.71;70.26
69084;SHT31;56185;48.526;9.044;2023-01-10T12:43:39;7.77;70.04
69084;SHT31;56185;48.526;9.044;2023-01-10T12:46:11;7.84;71.10
69084;SHT31;56185;48.526;9.044;2023-01-10T12:48:54;7.70;69.82
69084;SHT31;56185;48.526;9.044;2023-01-10T12:51:23;7.60;71.32
69084;SHT31;56185;48.526;9.044;2023-01-10T12:53:57;7.50;70.62
69084;SHT31;56185;48.526;9.044;2023-01-10T12:56:23;7.44;71.10
69084;SHT31;56185;48.526;9.044;2023-01-10T12:58:59;7.37;70.68
69084;SHT31;56185;48.526;9.044;2023-01-10T13:01:30;7.31;70.36
69084;SHT31;56185;48.526;9.044;2023-01-10T13:04:10;7.30;71.75
69084;SHT31;56185;48.526;9.044;2023-01-10T13:06:38;7.12;71.02
69084;SHT31;56185;48.526;9.044;2023-01-10T13:09:20;7.16;72.30
69084;SHT31;56185;48.526;9.044;2023-01-10T13:14:40;7.09;72.50
69084;SHT31;56185;48.526;9.044;2023-01-10T13:22:50;7.00;68.46
69084;SHT31;56185;48.526;9.044;2023-01-10T13:25:22;7.00;71.02
69084;SHT31;56185;48.526;9.044;2023-01-10T13:28:19;7.13;68.18
69084;SHT31;56185;48.526;9.044;2023-01-10T13:30:51;7.24;68.97
69084;SHT31;56185;48.526;9.044;2023-01-10T13:33:22;7.28;69.31
69084;SHT31;56185;48.526;9.044;2023-01-10T13:35:48;7.26;68.51
69084;SHT31;56185;48.526;9.044;2023-01-10T13:43:59;7.37;67.45
69084;SHT31;56185;48.526;9.044;2023-01-10T13:51:26;7.16;66.78
69084;SHT31;56185;48.526;9.044;2023-01-10T13:53:55;7.17;66.13
69084;SHT31;56185;48.526;9.044;2023-01-10T13:59:10;7.06;66.03
69084;SHT31;56185;48.526;9.044;2023-01-10T14:01:36;7.03;66.43
69084;SHT31;56185;48.526;9.044;2023-01-10T14:04:02;7.09;67.23
69084;SHT31;56185;48.526;9.044;2023-01-10T14:09:01;7.19;68.09
69084;SHT31;56185;48.526;9.044;2023-01-10T14:11:32;7.12;66.32
69084;SHT31;56185;48.526;9.044;2023-01-10T14:17:11;6.92;65.02
69084;SHT31;56185;48.526;9.044;2023-01-10T14:19:38;6.99;65.96
69084;SHT31;56185;48.526;9.044;2023-01-10T14:22:04;6.95;66.82
69084;SHT31;56185;48.526;9.044;2023-01-10T14:24:40;6.93;67.31
69084;SHT31;56185;48.526;9.044;2023-01-10T14:27:12;6.86;65.79
69084;SHT31;56185;48.526;9.044;2023-01-10T14:29:47;6.95;66.33
69084;SHT31;56185;48.526;9.044;2023-01-10T14:32:18;6.99;66.04
69084;SHT31;56185;48.526;9.044;2023-01-10T14:34:48;6.95;68.13
69084;SHT31;56185;48.526;9.044;2023-01-10T14:37:41;6.88;67.60
69084;SHT31;56185;48.526;9.044;2023-01-10T14:40:31;6.76;66.87
69084;SHT31;56185;48.526;9.044;2023-01-10T14:43:01;6.86;67.34
69084;SHT31;56185;48.526;9.044;2023-01-10T14:45:33;6.86;66.76
69084;SHT31;56185;48.526;9.044;2023-01-10T14:47:59;6.91;67.12
69084;SHT31;56185;48.526;9.044;2023-01-10T14:50:29;6.82;67.30
69084;SHT31;56185;48.526;9.044;2023-01-10T14:52:55;6.83;67.26
69084;SHT31;56185;48.526;9.044;2023-01-10T14:55:21;6.76;66.60
69084;SHT31;56185;48.526;9.044;2023-01-10T14:57:57;6.68;67.76
69084;SHT31;56185;48.526;9.044;2023-01-10T15:00:33;6.62;67.61
69084;SHT31;56185;48.526;9.044;2023-01-10T15:03:01;6.49;67.89
69084;SHT31;56185;48.526;9.044;2023-01-10T15:05:28;6.54;67.60
69084;SHT31;56185;48.526;9.044;2023-01-10T15:07:55;6.52;68.07
69084;SHT31;56185;48.526;9.044;2023-01-10T15:10:41;6.45;67.72
69084;SHT31;56185;48.526;9.044;2023-01-10T15:13:06;6.44;68.36
69084;SHT31;56185;48.526;9.044;2023-01-10T15:15:34;6.44;68.79
69084;SHT31;56185;48.526;9.044;2023-01-10T15:18:06;6.45;68.53
69084;SHT31;56185;48.526;9.044;2023-01-10T15:20:36;6.38;68.19
69084;SHT31;56185;48.526;9.044;2023-01-10T15:23:03;6.37;68.62
69084;SHT31;56185;48.526;9.044;2023-01-10T15:25:34;6.42;68.10
69084;SHT31;56185;48.526;9.044;2023-01-10T15:27:59;6.44;67.47
69084;SHT31;56185;48.526;9.044;2023-01-10T15:30:30;6.41;67.68
69084;SHT31;56185;48.526;9.044;2023-01-10T15:33:05;6.35;68.26
69084;SHT31;56185;48.526;9.044;2023-01-10T15:35:33;6.34;68.06
69084;SHT31;56185;48.526;9.044;2023-01-10T15:38:04;6.35;67.93
69084;SHT31;56185;48.526;9.044;2023-01-10T15:40:34;6.17;68.36
69084;SHT31;56185;48.526;9.044;2023-01-10T15:43:27;6.25;69.01
69084;SHT31;56185;48.526;9.044;2023-01-10T15:45:55;6.25;67.71
69084;SHT31;56185;48.526;9.044;2023-01-10T15:48:24;6.24;69.16
69084;SHT31;56185;48.526;9.044;2023-01-10T15:50:58;6.17;68.77
69084;SHT31;56185;48.526;9.044;2023-01-10T15:53:54;6.24;68.78
69084;SHT31;56185;48.526;9.044;2023-01-10T15:56:25;6.21;69.20
69084;SHT31;56185;48.526;9.044;2023-01-10T15:58:51;6.18;68.51
69084;SHT31;56185;48.526;9.044;2023-01-10T16:01:17;6.10;68.46
69084;SHT31;56185;48.526;9.044;2023-01-10T16:03:53;6.13;69.84
69084;SHT31;56185;48.526;9.044;2023-01-10T16:06:35;6.16;69.41
69084;SHT31;56185;48.526;9.044;2023-01-10T16:09:03;6.06;69.41
69084;SHT31;56185;48.526;9.044;2023-01-10T16:11:38;6.03;69.66
69084;SHT31;56185;48.526;9.044;2023-01-10T16:14:04;5.92;70.45
69084;SHT31;56185;48.526;9.044;2023-01-10T16:16:30;5.93;69.43
69084;SHT31;56185;48.526;9.044;2023-01-10T16:18:55;5.94;69.11
69084;SHT31;56185;48.526;9.044;2023-01-10T16:21:20;5.97;69.10
69084;SHT31;56185;48.526;9.044;2023-01-10T16:23:46;5.94;70.05
69084;SHT31;56185;48.526;9.044;2023-01-10T16:26:11;5.94;70.53
69084;SHT31;56185;48.526;9.044;2023-01-10T16:28:37;5.92;71.94
69084;SHT31;56185;48.526;9.044;2023-01-10T16:31:05;5.83;72.24
69084;SHT31;56185;48.526;9.044;2023-01-10T16:33:30;5.85;72.55
69084;SHT31;56185;48.526;9.044;2023-01-10T16:36:08;5.73;71.38
69084;SHT31;56185;48.526;9.044;2023-01-10T16:38:39;5.75;71.69
69084;SHT31;56185;48.526;9.044;2023-01-10T16:41:12;5.83;68.33
69084;SHT31;56185;48.526;9.044;2023-01-10T16:43:38;5.87;69.44
69084;SHT31;56185;48.526;9.044;2023-01-10T16:46:06;5.79;68.59
69084;SHT31;56185;48.526;9.044;2023-01-10T16:48:31;5.75;68.88
69084;SHT31;56185;48.526;9.044;2023-01-10T16:51:12;5.79;68.67
69084;SHT31;56185;48.526;9.044;2023-01-10T16:53:41;5.73;67.88
69084;SHT31;56185;48.526;9.044;2023-01-10T16:56:25;5.75;68.27
69084;SHT31;56185;48.526;9.044;2023-01-10T16:58:52;5.83;67.34
69084;SHT31;56185;48.526;9.044;2023-01-10T17:01:28;5.79;67.07
69084;SHT31;56185;48.526;9.044;2023-01-10T17:03:55;5.86;67.48
69084;SHT31;56185;48.526;9.044;2023-01-10T17:06:21;5.86;67.57
69084;SHT31;56185;48.526;9.044;2023-01-10T17:08:57;5.82;68.27
69084;SHT31;56185;48.526;9.044;2023-01-10T17:11:30;5.89;68.28
69084;SHT31;56185;48.526;9.044;2023-01-10T17:13:57;5.83;68.39
69084;SHT31;56185;48.526;9.044;2023-01-10T17:16:26;5.83;67.69
69084;SHT31;56185;48.526;9.044;2023-01-10T17:18:51;5.83;69.12
69084;SHT31;56185;48.526;9.044;2023-01-10T17:21:19;5.76;70.01
69084;SHT31;56185;48.526;9.044;2023-01-10T17:23:44;5.72;70.11
69084;SHT31;56185;48.526;9.044;2023-01-10T17:26:12;5.75;70.57